Time,TemperatureF,DewpointF,PressureIn,WindDirection,WindDirectionDegrees,WindSpeedMPH,WindSpeedGustMPH,Humidity,HourlyPrecipIn,Conditions,Clouds,dailyrainin,SoftwareType,DateUTC
2013-08-02 00:00:00,71.1,64.2,29.79,NW,315,1.0,0.0,79,0.00,,---,0.00,VWS V14.00,2013-08-02 05:00:00,
2013-08-02 00:05:00,70.9,64.4,29.79,NW,315,1.0,0.0,80,0.00,,---,0.00,VWS V14.00,2013-08-02 05:05:00,
2013-08-02 00:10:00,70.9,64.4,29.79,NW,315,1.0,0.0,80,0.00,,---,0.00,VWS V14.00,2013-08-02 05:10:00,
2013-08-02 00:15:00,70.7,64.2,29.79,NW,315,1.0,0.0,80,0.00,,---,0.00,VWS V14.00,2013-08-02 05:15:00,
2013-08-02 00:21:00,70.7,64.2,29.79,NW,315,1.0,0.0,80,0.00,,---,0.00,VWS V14.00,2013-08-02 05:21:00,
2013-08-02 00:26:00,70.5,64.1,29.79,NW,315,1.0,0.0,80,0.00,,---,0.00,VWS V14.00,2013-08-02 05:26:00,
2013-08-02 00:32:00,70.5,64.1,29.79,NW,315,1.0,0.0,80,0.00,,---,0.00,VWS V14.00,2013-08-02 05:32:00,
2013-08-02 00:37:00,70.3,63.9,29.79,NW,315,1.0,0.0,80,0.00,,---,0.00,VWS V14.00,2013-08-02 05:37:00,
2013-08-02 00:42:00,70.3,64.2,29.79,NW,315,1.0,0.0,81,0.00,,---,0.00,VWS V14.00,2013-08-02 05:42:00,
2013-08-02 00:47:00,70.2,64.1,29.79,NW,315,1.0,0.0,81,0.00,,---,0.00,VWS V14.00,2013-08-02 05:47:00,
2013-08-02 00:53:00,70.2,64.1,29.79,NW,315,2.1,2.1,81,0.00,,---,0.00,VWS V14.00,2013-08-02 05:53:00,
2013-08-02 00:58:00,70.2,64.1,29.79,NW,315,1.0,0.0,81,0.00,,---,0.00,VWS V14.00,2013-08-02 05:58:00,
2013-08-02 01:03:00,70.0,63.9,29.79,NW,315,1.0,0.0,81,0.00,,---,0.00,VWS V14.00,2013-08-02 06:03:00,
2013-08-02 01:09:00,70.0,63.9,29.79,NW,315,1.0,0.0,81,0.00,,---,0.00,VWS V14.00,2013-08-02 06:09:00,
2013-08-02 01:14:00,69.8,63.7,29.79,NW,315,1.0,0.0,81,0.00,,---,0.00,VWS V14.00,2013-08-02 06:14:00,
2013-08-02 01:20:00,69.8,63.7,29.79,NW,315,1.0,0.0,81,0.00,,---,0.00,VWS V14.00,2013-08-02 06:20:00,
2013-08-02 01:25:00,69.6,63.9,29.79,NW,315,1.0,1.1,82,0.00,,---,0.00,VWS V14.00,2013-08-02 06:25:00,
2013-08-02 01:32:00,69.4,63.7,29.79,NW,315,1.0,0.0,82,0.00,,---,0.00,VWS V14.00,2013-08-02 06:32:00,
2013-08-02 01:37:00,69.4,63.7,29.79,NW,315,1.0,0.0,82,0.00,,---,0.00,VWS V14.00,2013-08-02 06:37:00,
2013-08-02 01:43:00,69.3,63.5,29.79,NW,315,1.0,0.0,82,0.00,,---,0.00,VWS V14.00,2013-08-02 06:43:00,
2013-08-02 01:48:00,69.3,63.9,29.79,NW,315,1.0,0.0,83,0.00,,---,0.00,VWS V14.00,2013-08-02 06:48:00,
2013-08-02 01:54:00,69.3,63.9,29.79,NW,315,1.0,0.0,83,0.00,,---,0.00,VWS V14.00,2013-08-02 06:54:00,
2013-08-02 02:01:00,69.3,63.9,29.79,NW,315,1.0,0.0,83,0.00,,---,0.00,VWS V14.00,2013-08-02 07:01:00,
2013-08-02 02:06:00,69.1,63.7,29.79,NW,315,1.0,0.0,83,0.00,,---,0.00,VWS V14.00,2013-08-02 07:06:00,
2013-08-02 02:11:00,69.1,63.7,29.79,NW,315,1.0,0.0,83,0.00,,---,0.00,VWS V14.00,2013-08-02 07:11:00,
2013-08-02 02:16:00,68.9,63.5,29.79,NW,315,1.0,0.0,83,0.00,,---,0.00,VWS V14.00,2013-08-02 07:16:00,
2013-08-02 02:21:00,68.9,63.5,29.79,NW,315,1.0,0.0,83,0.00,,---,0.00,VWS V14.00,2013-08-02 07:21:00,
2013-08-02 02:26:00,68.9,63.5,29.79,NW,315,2.1,2.1,83,0.00,,---,0.00,VWS V14.00,2013-08-02 07:26:00,
2013-08-02 02:31:00,68.7,63.3,29.76,NW,315,1.0,0.0,83,0.00,,---,0.00,VWS V14.00,2013-08-02 07:31:00,
2013-08-02 02:37:00,68.7,63.3,29.76,NW,315,1.0,0.0,83,0.00,,---,0.00,VWS V14.00,2013-08-02 07:37:00,
2013-08-02 02:42:00,68.5,63.2,29.76,NW,315,1.0,0.0,83,0.00,,---,0.00,VWS V14.00,2013-08-02 07:42:00,
2013-08-02 02:47:00,68.5,63.5,29.76,NW,315,1.0,0.0,84,0.00,,---,0.00,VWS V14.00,2013-08-02 07:47:00,
2013-08-02 02:53:00,68.5,63.5,29.76,NW,315,1.0,0.0,84,0.00,,---,0.00,VWS V14.00,2013-08-02 07:53:00,
2013-08-02 02:58:00,68.5,63.5,29.76,NW,315,1.0,0.0,84,0.00,,---,0.00,VWS V14.00,2013-08-02 07:58:00,
2013-08-02 03:03:00,68.4,63.3,29.76,NW,315,1.0,0.0,84,0.00,,---,0.00,VWS V14.00,2013-08-02 08:03:00,
2013-08-02 03:08:00,68.4,63.3,29.76,NW,315,1.0,0.0,84,0.00,,---,0.00,VWS V14.00,2013-08-02 08:08:00,
2013-08-02 03:13:00,68.4,63.3,29.76,NW,315,2.1,2.1,84,0.00,,---,0.00,VWS V14.00,2013-08-02 08:13:00,
2013-08-02 03:19:00,68.4,63.3,29.76,NW,315,1.0,0.0,84,0.00,,---,0.00,VWS V14.00,2013-08-02 08:19:00,
2013-08-02 03:25:00,68.2,63.5,29.76,NW,315,1.0,0.0,85,0.00,,---,0.00,VWS V14.00,2013-08-02 08:25:00,
2013-08-02 03:30:00,68.2,63.5,29.76,NW,315,1.0,0.0,85,0.00,,---,0.00,VWS V14.00,2013-08-02 08:30:00,
2013-08-02 03:35:00,68.0,63.3,29.76,NW,315,1.0,0.0,85,0.00,,---,0.00,VWS V14.00,2013-08-02 08:35:00,
2013-08-02 03:42:00,68.0,63.3,29.76,NW,315,1.0,0.0,85,0.00,,---,0.00,VWS V14.00,2013-08-02 08:42:00,
2013-08-02 03:47:00,67.8,63.2,29.76,NW,315,1.0,0.0,85,0.00,,---,0.00,VWS V14.00,2013-08-02 08:47:00,
2013-08-02 03:52:00,67.8,63.2,29.76,NW,315,1.0,0.0,85,0.00,,---,0.00,VWS V14.00,2013-08-02 08:52:00,
2013-08-02 03:57:00,67.6,63.3,29.76,NW,315,1.0,0.0,86,0.00,,---,0.00,VWS V14.00,2013-08-02 08:57:00,
2013-08-02 04:03:00,67.6,63.0,29.76,NW,315,1.0,0.0,85,0.00,,---,0.00,VWS V14.00,2013-08-02 09:03:00,
2013-08-02 04:08:00,67.6,63.3,29.76,NW,315,1.0,0.0,86,0.00,,---,0.00,VWS V14.00,2013-08-02 09:08:00,
2013-08-02 04:13:00,67.6,63.3,29.76,NW,315,2.4,2.4,86,0.00,,---,0.00,VWS V14.00,2013-08-02 09:13:00,
2013-08-02 04:18:00,67.6,63.3,29.79,NW,315,1.0,0.0,86,0.00,,---,0.00,VWS V14.00,2013-08-02 09:18:00,
2013-08-02 04:23:00,67.6,63.3,29.79,NW,315,1.0,0.0,86,0.00,,---,0.00,VWS V14.00,2013-08-02 09:23:00,
2013-08-02 04:28:00,67.6,63.3,29.79,NW,315,1.0,0.0,86,0.00,,---,0.00,VWS V14.00,2013-08-02 09:28:00,
2013-08-02 04:33:00,67.6,63.3,29.79,NW,315,1.0,0.0,86,0.00,,---,0.00,VWS V14.00,2013-08-02 09:33:00,
2013-08-02 04:39:00,67.5,63.5,29.79,NW,315,1.0,1.0,87,0.00,,---,0.00,VWS V14.00,2013-08-02 09:39:00,
2013-08-02 04:45:00,67.5,63.5,29.79,NW,315,1.0,0.0,87,0.00,,---,0.00,VWS V14.00,2013-08-02 09:45:00,
2013-08-02 04:50:00,67.5,63.5,29.76,NW,315,1.0,0.0,87,0.00,,---,0.00,VWS V14.00,2013-08-02 09:50:00,
2013-08-02 04:55:00,67.3,63.3,29.76,NW,315,1.0,0.0,87,0.00,,---,0.00,VWS V14.00,2013-08-02 09:55:00,
2013-08-02 05:01:00,67.3,63.3,29.76,NW,315,1.0,0.0,87,0.00,,---,0.00,VWS V14.00,2013-08-02 10:01:00,
2013-08-02 05:06:00,67.3,63.3,29.76,NW,315,1.0,0.0,87,0.00,,---,0.00,VWS V14.00,2013-08-02 10:06:00,
2013-08-02 05:12:00,67.3,63.3,29.76,NW,315,1.0,0.0,87,0.00,,---,0.00,VWS V14.00,2013-08-02 10:12:00,
2013-08-02 05:17:00,67.3,63.3,29.79,NW,315,2.4,2.4,87,0.00,,---,0.00,VWS V14.00,2013-08-02 10:17:00,
2013-08-02 05:23:00,67.3,63.3,29.79,NW,315,1.0,0.0,87,0.00,,---,0.00,VWS V14.00,2013-08-02 10:23:00,
2013-08-02 05:29:00,67.1,63.1,29.79,NW,315,1.0,0.0,87,0.00,,---,0.00,VWS V14.00,2013-08-02 10:29:00,
2013-08-02 05:34:00,67.1,63.4,29.79,NW,315,1.0,0.0,88,0.00,,---,0.00,VWS V14.00,2013-08-02 10:34:00,
2013-08-02 05:39:00,67.1,63.4,29.79,NW,315,1.0,0.0,88,0.00,,---,0.00,VWS V14.00,2013-08-02 10:39:00,
2013-08-02 05:44:00,67.1,63.4,29.79,NW,315,1.0,0.0,88,0.00,,---,0.00,VWS V14.00,2013-08-02 10:44:00,
2013-08-02 05:49:00,66.9,63.3,29.76,NW,315,1.0,0.0,88,0.00,,---,0.00,VWS V14.00,2013-08-02 10:49:00,
2013-08-02 05:55:00,66.9,63.3,29.76,NW,315,1.0,0.0,88,0.00,,---,0.00,VWS V14.00,2013-08-02 10:55:00,
2013-08-02 06:00:00,66.9,63.3,29.76,NW,315,1.0,0.0,88,0.00,,---,0.00,VWS V14.00,2013-08-02 11:00:00,
2013-08-02 06:05:00,66.7,63.1,29.79,NW,315,1.0,0.0,88,0.00,,---,0.00,VWS V14.00,2013-08-02 11:05:00,
2013-08-02 06:10:00,66.9,63.3,29.79,NW,315,2.4,2.4,88,0.00,,---,0.00,VWS V14.00,2013-08-02 11:10:00,
2013-08-02 06:16:00,67.1,63.8,29.79,NW,315,1.0,0.0,89,0.00,,---,0.00,VWS V14.00,2013-08-02 11:16:00,
2013-08-02 06:21:00,67.3,63.9,29.79,NW,315,2.1,2.1,89,0.00,,---,0.00,VWS V14.00,2013-08-02 11:21:00,
2013-08-02 06:26:00,67.3,63.9,29.79,NW,315,1.0,0.0,89,0.00,,---,0.00,VWS V14.00,2013-08-02 11:26:00,
2013-08-02 06:32:00,67.3,63.9,29.79,NW,315,2.4,2.4,89,0.00,,---,0.00,VWS V14.00,2013-08-02 11:32:00,
2013-08-02 06:37:00,67.5,64.1,29.79,NW,315,3.0,3.0,89,0.00,,---,0.00,VWS V14.00,2013-08-02 11:37:00,
2013-08-02 06:42:00,67.6,64.3,29.79,NW,315,1.0,1.1,89,0.00,,---,0.00,VWS V14.00,2013-08-02 11:42:00,
2013-08-02 06:47:00,67.6,64.3,29.79,NW,315,1.0,0.0,89,0.00,,---,0.00,VWS V14.00,2013-08-02 11:47:00,
2013-08-02 06:53:00,68.0,64.3,29.79,NW,315,1.0,0.0,88,0.00,,---,0.00,VWS V14.00,2013-08-02 11:53:00,
2013-08-02 06:57:00,68.2,64.5,29.79,NW,315,1.0,0.0,88,0.00,,---,0.00,VWS V14.00,2013-08-02 11:57:00,
2013-08-02 07:03:00,68.5,65.2,29.79,NW,315,1.0,0.0,89,0.00,,---,0.00,VWS V14.00,2013-08-02 12:03:00,
2013-08-02 07:08:00,68.9,65.5,29.79,NW,315,1.0,0.0,89,0.00,,---,0.00,VWS V14.00,2013-08-02 12:08:00,
2013-08-02 07:14:00,69.6,66.2,29.79,NW,315,1.0,0.0,89,0.00,,---,0.00,VWS V14.00,2013-08-02 12:14:00,
2013-08-02 07:19:00,70.0,66.6,29.82,NW,315,2.7,2.7,89,0.00,,---,0.00,VWS V14.00,2013-08-02 12:19:00,
2013-08-02 07:24:00,70.3,66.9,29.82,NW,315,1.0,0.0,89,0.00,,---,0.00,VWS V14.00,2013-08-02 12:24:00,
2013-08-02 07:29:00,70.9,67.5,29.82,NW,315,1.0,0.0,89,0.00,,---,0.00,VWS V14.00,2013-08-02 12:29:00,
2013-08-02 07:34:00,71.2,67.8,29.79,NW,315,1.0,0.0,89,0.00,,---,0.00,VWS V14.00,2013-08-02 12:34:00,
2013-08-02 07:39:00,71.6,67.9,29.79,NW,315,1.0,0.0,88,0.00,,---,0.00,VWS V14.00,2013-08-02 12:39:00,
2013-08-02 07:45:00,72.1,68.4,29.79,NW,315,1.0,1.0,88,0.00,,---,0.00,VWS V14.00,2013-08-02 12:45:00,
2013-08-02 07:50:00,72.5,68.8,29.79,NW,315,2.7,2.7,88,0.00,,---,0.00,VWS V14.00,2013-08-02 12:50:00,
2013-08-02 07:56:00,72.9,69.1,29.79,NW,315,1.0,0.0,88,0.00,,---,0.00,VWS V14.00,2013-08-02 12:56:00,
2013-08-02 08:01:00,73.2,69.1,29.79,NW,315,2.4,2.4,87,0.00,,---,0.00,VWS V14.00,2013-08-02 13:01:00,
2013-08-02 08:07:00,73.8,69.7,29.79,NW,315,3.8,3.8,87,0.00,,---,0.00,VWS V14.00,2013-08-02 13:07:00,
2013-08-02 08:12:00,73.9,69.8,29.79,SE,135,2.7,2.7,87,0.00,,---,0.00,VWS V14.00,2013-08-02 13:12:00,
2013-08-02 08:17:00,74.5,70.4,29.79,SSW,202,2.4,2.4,87,0.00,,---,0.00,VWS V14.00,2013-08-02 13:17:00,
2013-08-02 08:22:00,75.0,70.6,29.79,SSW,202,2.4,2.4,86,0.00,,---,0.00,VWS V14.00,2013-08-02 13:22:00,
2013-08-02 08:27:00,75.6,71.1,29.79,South,180,2.7,2.7,86,0.00,,---,0.00,VWS V14.00,2013-08-02 13:27:00,
2013-08-02 08:32:00,75.7,70.9,29.79,South,180,2.7,2.7,85,0.00,,---,0.00,VWS V14.00,2013-08-02 13:32:00,
2013-08-02 08:37:00,76.3,71.4,29.79,SSW,202,4.9,4.9,85,0.00,,---,0.00,VWS V14.00,2013-08-02 13:37:00,
2013-08-02 08:43:00,76.8,72.0,29.79,SSW,202,4.9,4.9,85,0.00,,---,0.00,VWS V14.00,2013-08-02 13:43:00,
2013-08-02 08:48:00,77.5,72.7,29.79,SE,135,4.1,4.1,85,0.00,,---,0.00,VWS V14.00,2013-08-02 13:48:00,
2013-08-02 08:53:00,78.1,72.9,29.79,SE,135,5.5,5.5,84,0.00,,---,0.00,VWS V14.00,2013-08-02 13:53:00,
2013-08-02 08:58:00,78.4,72.5,29.79,South,180,5.2,5.2,82,0.00,,---,0.00,VWS V14.00,2013-08-02 13:58:00,
2013-08-02 09:04:00,78.8,72.1,29.79,ESE,112,6.0,6.0,80,0.00,,---,0.00,VWS V14.00,2013-08-02 14:04:00,
2013-08-02 09:09:00,79.0,72.7,29.79,SE,135,4.4,4.4,81,0.00,,---,0.00,VWS V14.00,2013-08-02 14:09:00,
2013-08-02 09:14:00,79.5,72.8,29.79,SE,135,4.4,4.4,80,0.00,,---,0.00,VWS V14.00,2013-08-02 14:14:00,
2013-08-02 09:20:00,79.7,72.6,29.79,SE,135,4.4,4.4,79,0.00,,---,0.00,VWS V14.00,2013-08-02 14:20:00,
2013-08-02 09:25:00,80.1,73.0,29.79,ESE,112,4.1,4.1,79,0.00,,---,0.00,VWS V14.00,2013-08-02 14:25:00,
2013-08-02 09:30:00,80.6,73.1,29.79,SE,135,4.4,6.5,78,0.00,,---,0.00,VWS V14.00,2013-08-02 14:30:00,
2013-08-02 09:36:00,80.8,72.9,29.79,SSW,202,6.0,6.0,77,0.00,,---,0.00,VWS V14.00,2013-08-02 14:36:00,
2013-08-02 09:41:00,81.0,72.7,29.79,SE,135,5.8,5.8,76,0.00,,---,0.00,VWS V14.00,2013-08-02 14:41:00,
2013-08-02 09:46:00,81.0,72.7,29.79,ESE,112,4.4,4.4,76,0.00,,---,0.00,VWS V14.00,2013-08-02 14:46:00,
2013-08-02 09:53:00,81.1,72.5,29.79,SSE,158,6.0,6.0,75,0.00,,---,0.00,VWS V14.00,2013-08-02 14:53:00,
2013-08-02 09:58:00,81.0,70.7,29.79,SE,135,5.8,6.5,71,0.00,,---,0.00,VWS V14.00,2013-08-02 14:58:00,
2013-08-02 10:03:00,81.0,71.1,29.82,ESE,112,5.2,5.2,72,0.00,,---,0.00,VWS V14.00,2013-08-02 15:03:00,
2013-08-02 10:08:00,81.5,71.6,29.82,South,180,6.3,6.3,72,0.00,,---,0.00,VWS V14.00,2013-08-02 15:08:00,
2013-08-02 10:14:00,81.5,70.4,29.82,SW,225,3.5,5.4,69,0.00,,---,0.00,VWS V14.00,2013-08-02 15:14:00,
2013-08-02 10:20:00,81.3,71.0,29.79,South,180,4.1,4.1,71,0.00,,---,0.00,VWS V14.00,2013-08-02 15:20:00,
2013-08-02 10:26:00,81.7,71.8,29.79,ESE,112,7.2,7.4,72,0.00,,---,0.00,VWS V14.00,2013-08-02 15:26:00,
2013-08-02 10:31:00,81.9,70.7,29.79,ESE,112,7.7,7.8,69,0.00,,---,0.00,VWS V14.00,2013-08-02 15:31:00,
2013-08-02 10:36:00,81.9,69.8,29.79,SE,135,11.1,11.1,67,0.00,,---,0.00,VWS V14.00,2013-08-02 15:36:00,
2013-08-02 10:41:00,82.0,70.4,29.79,South,180,6.6,6.6,68,0.00,,---,0.00,VWS V14.00,2013-08-02 15:41:00,
2013-08-02 10:47:00,81.7,68.8,29.82,SW,225,5.5,5.5,65,0.00,,---,0.00,VWS V14.00,2013-08-02 15:47:00,
2013-08-02 10:52:00,81.9,69.4,29.82,South,180,6.3,6.3,66,0.00,,---,0.00,VWS V14.00,2013-08-02 15:52:00,
2013-08-02 10:57:00,82.0,70.0,29.82,SSW,202,4.4,4.4,67,0.00,,---,0.00,VWS V14.00,2013-08-02 15:57:00,
2013-08-02 11:03:00,82.8,69.3,29.82,East,90,8.0,11.0,64,0.00,,---,0.00,VWS V14.00,2013-08-02 16:03:00,
2013-08-02 11:08:00,82.9,69.5,29.82,SE,135,6.9,8.1,64,0.00,,---,0.00,VWS V14.00,2013-08-02 16:08:00,
2013-08-02 11:13:00,83.7,69.7,29.82,SE,135,6.3,7.8,63,0.00,,---,0.00,VWS V14.00,2013-08-02 16:13:00,
2013-08-02 11:18:00,83.8,69.4,29.82,SSE,158,14.1,14.1,62,0.00,,---,0.00,VWS V14.00,2013-08-02 16:18:00,
2013-08-02 11:24:00,83.5,69.1,29.82,SW,225,3.5,3.5,62,0.00,,---,0.00,VWS V14.00,2013-08-02 16:24:00,
2013-08-02 11:29:00,84.0,70.1,29.82,SSE,158,8.6,8.6,63,0.00,,---,0.00,VWS V14.00,2013-08-02 16:29:00,
2013-08-02 11:34:00,84.4,70.4,29.82,SW,225,5.2,5.2,63,0.00,,---,0.00,VWS V14.00,2013-08-02 16:34:00,
2013-08-02 11:40:00,85.3,70.8,29.82,South,180,6.3,6.5,62,0.00,,---,0.00,VWS V14.00,2013-08-02 16:40:00,
2013-08-02 11:45:00,85.6,70.2,29.82,SW,225,4.9,7.4,60,0.00,,---,0.00,VWS V14.00,2013-08-02 16:45:00,
2013-08-02 11:50:00,86.0,69.5,29.82,South,180,8.0,8.0,58,0.00,,---,0.00,VWS V14.00,2013-08-02 16:50:00,
2013-08-02 11:56:00,85.8,68.8,29.82,SE,135,13.6,13.6,57,0.00,,---,0.00,VWS V14.00,2013-08-02 16:56:00,
2013-08-02 12:01:00,86.2,67.6,29.82,South,180,8.6,8.6,54,0.00,,---,0.00,VWS V14.00,2013-08-02 17:01:00,
2013-08-02 12:06:00,86.2,68.1,29.82,SSW,202,7.2,7.8,55,0.00,,---,0.00,VWS V14.00,2013-08-02 17:06:00,
2013-08-02 12:11:00,86.0,68.0,29.82,South,180,6.3,6.3,55,0.00,,---,0.00,VWS V14.00,2013-08-02 17:11:00,
2013-08-02 12:16:00,86.0,68.5,29.82,SSE,158,5.5,5.6,56,0.00,,---,0.00,VWS V14.00,2013-08-02 17:16:00,
2013-08-02 12:21:00,86.4,69.3,29.82,South,180,8.3,8.3,57,0.00,,---,0.00,VWS V14.00,2013-08-02 17:21:00,
2013-08-02 12:27:00,86.2,69.2,29.82,SE,135,6.3,6.5,57,0.00,,---,0.00,VWS V14.00,2013-08-02 17:27:00,
2013-08-02 12:32:00,86.2,68.7,29.79,South,180,8.3,8.3,56,0.00,,---,0.00,VWS V14.00,2013-08-02 17:32:00,
2013-08-02 12:38:00,86.2,68.7,29.79,SW,225,5.2,5.8,56,0.00,,---,0.00,VWS V14.00,2013-08-02 17:38:00,
2013-08-02 12:43:00,86.4,68.3,29.79,South,180,9.1,9.4,55,0.00,,---,0.00,VWS V14.00,2013-08-02 17:43:00,
2013-08-02 12:48:00,86.2,68.1,29.79,South,180,10.0,10.0,55,0.00,,---,0.00,VWS V14.00,2013-08-02 17:48:00,
2013-08-02 12:53:00,86.0,67.4,29.79,SSE,158,8.0,8.0,54,0.00,,---,0.00,VWS V14.00,2013-08-02 17:53:00,
2013-08-02 12:58:00,86.7,69.2,29.79,South,180,10.2,10.2,56,0.00,,---,0.00,VWS V14.00,2013-08-02 17:58:00,
2013-08-02 13:03:00,87.1,67.9,29.79,South,180,7.2,7.6,53,0.00,,---,0.00,VWS V14.00,2013-08-02 18:03:00,
2013-08-02 13:09:00,87.3,68.6,29.79,SW,225,3.8,5.8,54,0.00,,---,0.00,VWS V14.00,2013-08-02 18:09:00,
2013-08-02 13:14:00,87.8,69.1,29.79,SE,135,7.7,8.1,54,0.00,,---,0.00,VWS V14.00,2013-08-02 18:14:00,
2013-08-02 13:20:00,87.4,68.2,29.79,SSW,202,8.0,8.0,53,0.00,,---,0.00,VWS V14.00,2013-08-02 18:20:00,
2013-08-02 13:26:00,88.2,68.9,29.79,SSW,202,4.9,5.8,53,0.00,,---,0.00,VWS V14.00,2013-08-02 18:26:00,
2013-08-02 13:31:00,88.0,68.2,29.79,SE,135,7.2,7.2,52,0.00,,---,0.00,VWS V14.00,2013-08-02 18:31:00,
2013-08-02 13:37:00,88.0,68.7,29.79,SSW,202,7.7,7.7,53,0.00,,---,0.00,VWS V14.00,2013-08-02 18:37:00,
2013-08-02 13:43:00,88.2,68.3,29.79,SSE,158,8.8,8.8,52,0.00,,---,0.00,VWS V14.00,2013-08-02 18:43:00,
2013-08-02 13:48:00,88.3,67.9,29.79,South,180,9.1,9.1,51,0.00,,---,0.00,VWS V14.00,2013-08-02 18:48:00,
2013-08-02 13:53:00,88.3,67.9,29.79,SW,225,4.9,5.4,51,0.00,,---,0.00,VWS V14.00,2013-08-02 18:53:00,
2013-08-02 13:59:00,88.5,67.5,29.79,SSW,202,8.0,8.0,50,0.00,,---,0.00,VWS V14.00,2013-08-02 18:59:00,
2013-08-02 14:04:00,88.7,67.1,29.79,SSE,158,7.2,7.2,49,0.00,,---,0.00,VWS V14.00,2013-08-02 19:04:00,
2013-08-02 14:10:00,88.7,67.1,29.79,SE,135,7.7,7.7,49,0.00,,---,0.00,VWS V14.00,2013-08-02 19:10:00,
2013-08-02 14:15:00,88.3,66.8,29.79,South,180,7.7,7.7,49,0.00,,---,0.00,VWS V14.00,2013-08-02 19:15:00,
2013-08-02 14:20:00,88.7,67.7,29.79,SSE,158,8.0,10.7,50,0.00,,---,0.00,VWS V14.00,2013-08-02 19:20:00,
2013-08-02 14:26:00,88.9,67.8,29.79,SW,225,7.2,7.4,50,0.00,,---,0.00,VWS V14.00,2013-08-02 19:26:00,
2013-08-02 14:31:00,88.7,66.5,29.79,SE,135,8.3,8.3,48,0.00,,---,0.00,VWS V14.00,2013-08-02 19:31:00,
2013-08-02 14:37:00,88.7,66.5,29.79,SW,225,5.2,5.2,48,0.00,,---,0.00,VWS V14.00,2013-08-02 19:37:00,
2013-08-02 14:42:00,88.7,65.9,29.79,SSW,202,8.0,8.0,47,0.00,,---,0.00,VWS V14.00,2013-08-02 19:42:00,
2013-08-02 14:47:00,89.1,67.4,29.76,South,180,4.9,4.9,49,0.00,,---,0.00,VWS V14.00,2013-08-02 19:47:00,
2013-08-02 14:52:00,89.2,67.0,29.76,SSE,158,12.2,12.2,48,0.00,,---,0.00,VWS V14.00,2013-08-02 19:52:00,
2013-08-02 14:57:00,89.2,67.0,29.76,SSW,202,7.2,7.2,48,0.00,,---,0.00,VWS V14.00,2013-08-02 19:57:00,
2013-08-02 15:02:00,90.0,67.7,29.76,SSE,158,5.8,5.8,48,0.00,,---,0.00,VWS V14.00,2013-08-02 20:02:00,
2013-08-02 15:08:00,90.0,67.0,29.76,South,180,4.9,9.6,47,0.00,,---,0.00,VWS V14.00,2013-08-02 20:08:00,
2013-08-02 15:13:00,89.8,65.6,29.76,SSW,202,5.8,5.8,45,0.00,,---,0.00,VWS V14.00,2013-08-02 20:13:00,
2013-08-02 15:18:00,89.6,65.5,29.76,WSW,248,5.2,6.3,45,0.00,,---,0.00,VWS V14.00,2013-08-02 20:18:00,
2013-08-02 15:23:00,89.2,66.4,29.76,SW,225,6.3,6.3,47,0.00,,---,0.00,VWS V14.00,2013-08-02 20:23:00,
2013-08-02 15:29:00,89.1,65.6,29.76,SW,225,7.2,7.2,46,0.00,,---,0.00,VWS V14.00,2013-08-02 20:29:00,
2013-08-02 15:34:00,88.7,65.9,29.76,SSE,158,6.9,10.1,47,0.00,,---,0.00,VWS V14.00,2013-08-02 20:34:00,
2013-08-02 15:39:00,88.0,65.2,29.76,South,180,4.6,6.5,47,0.00,,---,0.00,VWS V14.00,2013-08-02 20:39:00,
2013-08-02 15:44:00,88.0,64.6,29.76,South,180,5.2,5.4,46,0.00,,---,0.00,VWS V14.00,2013-08-02 20:44:00,
2013-08-02 15:49:00,88.0,64.6,29.76,SSE,158,6.0,6.0,46,0.00,,---,0.00,VWS V14.00,2013-08-02 20:49:00,
2013-08-02 15:54:00,87.8,65.1,29.76,SSE,158,5.5,5.5,47,0.00,,---,0.00,VWS V14.00,2013-08-02 20:54:00,
2013-08-02 15:59:00,87.8,65.7,29.76,East,90,8.6,8.6,48,0.00,,---,0.00,VWS V14.00,2013-08-02 20:59:00,
2013-08-02 16:04:00,88.0,65.8,29.76,SW,225,4.1,4.1,48,0.00,,---,0.00,VWS V14.00,2013-08-02 21:04:00,
2013-08-02 16:09:00,87.8,65.7,29.76,South,180,5.5,5.8,48,0.00,,---,0.00,VWS V14.00,2013-08-02 21:09:00,
2013-08-02 16:14:00,87.8,65.1,29.76,SW,225,4.6,4.6,47,0.00,,---,0.00,VWS V14.00,2013-08-02 21:14:00,
2013-08-02 16:19:00,88.0,65.8,29.76,South,180,5.5,7.2,48,0.00,,---,0.00,VWS V14.00,2013-08-02 21:19:00,
2013-08-02 16:25:00,87.8,65.1,29.76,SE,135,5.2,5.2,47,0.00,,---,0.00,VWS V14.00,2013-08-02 21:25:00,
2013-08-02 16:30:00,87.6,64.9,29.76,SSE,158,5.5,5.5,47,0.00,,---,0.00,VWS V14.00,2013-08-02 21:30:00,
2013-08-02 16:36:00,87.1,63.8,29.76,SE,135,6.3,6.3,46,0.00,,---,0.00,VWS V14.00,2013-08-02 21:36:00,
2013-08-02 16:41:00,86.5,63.3,29.76,South,180,5.8,7.4,46,0.00,,---,0.00,VWS V14.00,2013-08-02 21:41:00,
2013-08-02 16:46:00,86.0,62.8,29.76,SSE,158,8.6,8.6,46,0.00,,---,0.00,VWS V14.00,2013-08-02 21:46:00,
2013-08-02 16:51:00,85.8,63.3,29.76,SSE,158,9.1,9.1,47,0.00,,---,0.00,VWS V14.00,2013-08-02 21:51:00,
2013-08-02 16:57:00,85.8,63.3,29.76,SSE,158,11.9,11.9,47,0.00,,---,0.00,VWS V14.00,2013-08-02 21:57:00,
2013-08-02 17:03:00,85.8,63.9,29.76,South,180,8.8,8.8,48,0.00,,---,0.00,VWS V14.00,2013-08-02 22:03:00,
2013-08-02 17:08:00,86.0,64.0,29.76,SW,225,6.0,6.0,48,0.00,,---,0.00,VWS V14.00,2013-08-02 22:08:00,
2013-08-02 17:14:00,86.4,65.0,29.76,South,180,5.2,9.0,49,0.00,,---,0.00,VWS V14.00,2013-08-02 22:14:00,
2013-08-02 17:19:00,86.9,64.9,29.74,ESE,112,8.6,8.6,48,0.00,,---,0.00,VWS V14.00,2013-08-02 22:19:00,
2013-08-02 17:24:00,86.9,64.3,29.74,SE,135,8.0,8.0,47,0.00,,---,0.00,VWS V14.00,2013-08-02 22:24:00,
2013-08-02 17:29:00,86.9,64.3,29.74,SSW,202,10.0,10.0,47,0.00,,---,0.00,VWS V14.00,2013-08-02 22:29:00,
2013-08-02 17:35:00,86.7,64.1,29.74,ESE,112,8.8,8.8,47,0.00,,---,0.00,VWS V14.00,2013-08-02 22:35:00,
2013-08-02 17:40:00,86.5,64.5,29.74,SSE,158,10.0,10.0,48,0.00,,---,0.00,VWS V14.00,2013-08-02 22:40:00,
2013-08-02 17:45:00,86.5,64.5,29.74,SSE,158,8.3,8.3,48,0.00,,---,0.00,VWS V14.00,2013-08-02 22:45:00,
2013-08-02 17:50:00,86.4,65.0,29.74,SE,135,5.8,5.8,49,0.00,,---,0.00,VWS V14.00,2013-08-02 22:50:00,
2013-08-02 17:55:00,85.6,64.3,29.74,SSE,158,9.1,9.1,49,0.00,,---,0.00,VWS V14.00,2013-08-02 22:55:00,
2013-08-02 18:00:00,85.1,64.4,29.74,South,180,8.6,8.6,50,0.00,,---,0.00,VWS V14.00,2013-08-02 23:00:00,
2013-08-02 18:05:00,84.9,64.8,29.74,SSE,158,3.5,3.5,51,0.00,,---,0.00,VWS V14.00,2013-08-02 23:05:00,
2013-08-02 18:10:00,84.9,64.8,29.74,SE,135,5.2,5.8,51,0.00,,---,0.00,VWS V14.00,2013-08-02 23:10:00,
2013-08-02 18:15:00,85.5,65.8,29.74,SE,135,5.2,6.5,52,0.00,,---,0.00,VWS V14.00,2013-08-02 23:15:00,
2013-08-02 18:20:00,85.6,65.4,29.74,SSE,158,6.3,6.3,51,0.00,,---,0.00,VWS V14.00,2013-08-02 23:20:00,
2013-08-02 18:25:00,86.4,66.1,29.74,SSE,158,5.2,7.4,51,0.00,,---,0.00,VWS V14.00,2013-08-02 23:25:00,
2013-08-02 18:31:00,86.2,65.4,29.74,SSW,202,13.3,13.3,50,0.00,,---,0.00,VWS V14.00,2013-08-02 23:31:00,
2013-08-02 18:36:00,85.8,65.1,29.74,SSE,158,10.0,10.0,50,0.00,,---,0.00,VWS V14.00,2013-08-02 23:36:00,
2013-08-02 18:42:00,85.6,65.4,29.74,South,180,4.1,4.1,51,0.00,,---,0.00,VWS V14.00,2013-08-02 23:42:00,
2013-08-02 18:47:00,85.5,65.3,29.74,SSE,158,5.8,5.8,51,0.00,,---,0.00,VWS V14.00,2013-08-02 23:47:00,
2013-08-02 18:53:00,85.1,65.0,29.74,South,180,6.3,6.3,51,0.00,,---,0.00,VWS V14.00,2013-08-02 23:53:00,
2013-08-02 18:59:00,84.7,65.2,29.74,SW,225,4.4,4.4,52,0.00,,---,0.00,VWS V14.00,2013-08-02 23:59:00,
2013-08-02 19:04:00,84.4,64.8,29.74,SW,225,3.5,6.5,52,0.00,,---,0.00,VWS V14.00,2013-08-03 00:04:00,
2013-08-02 19:09:00,84.2,64.7,29.74,SSW,202,4.9,4.9,52,0.00,,---,0.00,VWS V14.00,2013-08-03 00:09:00,
2013-08-02 19:15:00,83.8,64.9,29.74,SE,135,8.0,8.0,53,0.00,,---,0.00,VWS V14.00,2013-08-03 00:15:00,
2013-08-02 19:20:00,83.5,64.6,29.74,SE,135,4.4,4.4,53,0.00,,---,0.00,VWS V14.00,2013-08-03 00:20:00,
2013-08-02 19:25:00,83.1,65.3,29.74,South,180,5.2,5.2,55,0.00,,---,0.00,VWS V14.00,2013-08-03 00:25:00,
2013-08-02 19:30:00,82.8,65.0,29.74,South,180,4.1,4.1,55,0.00,,---,0.00,VWS V14.00,2013-08-03 00:30:00,
2013-08-02 19:35:00,82.4,65.1,29.76,ESE,112,3.5,3.5,56,0.00,,---,0.00,VWS V14.00,2013-08-03 00:35:00,
2013-08-02 19:40:00,82.0,65.3,29.76,SSE,158,4.4,4.4,57,0.00,,---,0.00,VWS V14.00,2013-08-03 00:40:00,
2013-08-02 19:45:00,81.9,65.2,29.76,SSE,158,4.4,4.4,57,0.00,,---,0.00,VWS V14.00,2013-08-03 00:45:00,
2013-08-02 19:51:00,81.5,65.3,29.74,SSW,202,4.9,4.9,58,0.00,,---,0.00,VWS V14.00,2013-08-03 00:51:00,
2013-08-02 19:56:00,81.3,65.6,29.74,SSW,202,4.4,4.4,59,0.00,,---,0.00,VWS V14.00,2013-08-03 00:56:00,
2013-08-02 20:02:00,81.3,65.6,29.74,SSE,158,3.0,3.0,59,0.00,,---,0.00,VWS V14.00,2013-08-03 01:02:00,
2013-08-02 20:07:00,80.8,65.6,29.74,SW,225,3.5,3.5,60,0.00,,---,0.00,VWS V14.00,2013-08-03 01:07:00,
2013-08-02 20:13:00,80.6,65.9,29.74,WSW,248,2.1,2.1,61,0.00,,---,0.00,VWS V14.00,2013-08-03 01:13:00,
2013-08-02 20:18:00,80.4,66.2,29.74,South,180,3.0,3.0,62,0.00,,---,0.00,VWS V14.00,2013-08-03 01:18:00,
2013-08-02 20:24:00,80.2,66.1,29.74,South,180,3.0,3.0,62,0.00,,---,0.00,VWS V14.00,2013-08-03 01:24:00,
2013-08-02 20:30:00,80.2,66.5,29.74,SSE,158,3.0,3.0,63,0.00,,---,0.00,VWS V14.00,2013-08-03 01:30:00,
2013-08-02 20:35:00,80.1,66.3,29.74,South,180,3.0,3.4,63,0.00,,---,0.00,VWS V14.00,2013-08-03 01:35:00,
2013-08-02 20:40:00,79.9,66.6,29.74,SE,135,2.1,2.1,64,0.00,,---,0.00,VWS V14.00,2013-08-03 01:40:00,
2013-08-02 20:45:00,79.9,66.6,29.74,SSE,158,3.0,3.0,64,0.00,,---,0.00,VWS V14.00,2013-08-03 01:45:00,
2013-08-02 20:51:00,79.7,66.5,29.74,SE,135,4.1,4.1,64,0.00,,---,0.00,VWS V14.00,2013-08-03 01:51:00,
2013-08-02 20:57:00,79.5,66.7,29.74,SE,135,3.5,3.5,65,0.00,,---,0.00,VWS V14.00,2013-08-03 01:57:00,
2013-08-02 21:02:00,79.5,66.7,29.74,South,180,4.1,4.1,65,0.00,,---,0.00,VWS V14.00,2013-08-03 02:02:00,
2013-08-02 21:07:00,79.3,67.0,29.74,SE,135,5.2,5.2,66,0.00,,---,0.00,VWS V14.00,2013-08-03 02:07:00,
2013-08-02 21:12:00,79.2,66.8,29.74,SSE,158,4.4,4.4,66,0.00,,---,0.00,VWS V14.00,2013-08-03 02:12:00,
2013-08-02 21:17:00,79.0,67.1,29.74,SSE,158,5.2,5.2,67,0.00,,---,0.00,VWS V14.00,2013-08-03 02:17:00,
2013-08-02 21:22:00,78.8,66.9,29.74,SE,135,6.3,6.3,67,0.00,,---,0.00,VWS V14.00,2013-08-03 02:22:00,
2013-08-02 21:28:00,78.8,66.9,29.74,South,180,3.5,3.6,67,0.00,,---,0.00,VWS V14.00,2013-08-03 02:28:00,
2013-08-02 21:33:00,78.6,66.8,29.76,ESE,112,3.0,3.0,67,0.00,,---,0.00,VWS V14.00,2013-08-03 02:33:00,
2013-08-02 21:38:00,78.4,67.0,29.76,NE,45,1.0,1.0,68,0.00,,---,0.00,VWS V14.00,2013-08-03 02:38:00,
2013-08-02 21:43:00,78.4,67.0,29.76,NE,45,1.0,1.3,68,0.00,,---,0.00,VWS V14.00,2013-08-03 02:43:00,
2013-08-02 21:48:00,78.4,67.0,29.76,ENE,68,2.1,2.1,68,0.00,,---,0.00,VWS V14.00,2013-08-03 02:48:00,
2013-08-02 21:54:00,78.4,67.0,29.76,ENE,68,1.0,0.0,68,0.00,,---,0.00,VWS V14.00,2013-08-03 02:54:00,
2013-08-02 21:59:00,78.4,67.0,29.76,ENE,68,1.0,0.0,68,0.00,,---,0.00,VWS V14.00,2013-08-03 02:59:00,
2013-08-02 22:04:00,78.4,67.0,29.76,East,90,2.4,2.4,68,0.00,,---,0.00,VWS V14.00,2013-08-03 03:04:00,
2013-08-02 22:09:00,78.4,67.0,29.76,ESE,112,3.5,3.5,68,0.00,,---,0.00,VWS V14.00,2013-08-03 03:09:00,
2013-08-02 22:15:00,78.3,66.8,29.76,ESE,112,1.0,1.1,68,0.00,,---,0.00,VWS V14.00,2013-08-03 03:15:00,
2013-08-02 22:20:00,78.3,66.8,29.76,SE,135,4.4,4.4,68,0.00,,---,0.00,VWS V14.00,2013-08-03 03:20:00,
2013-08-02 22:25:00,78.1,66.7,29.76,SE,135,2.1,2.1,68,0.00,,---,0.00,VWS V14.00,2013-08-03 03:25:00,
2013-08-02 22:30:00,77.9,66.9,29.76,East,90,1.0,1.6,69,0.00,,---,0.00,VWS V14.00,2013-08-03 03:30:00,
2013-08-02 22:35:00,77.9,66.9,29.76,East,90,3.5,3.5,69,0.00,,---,0.00,VWS V14.00,2013-08-03 03:35:00,
2013-08-02 22:41:00,77.7,66.8,29.76,SE,135,3.5,3.5,69,0.00,,---,0.00,VWS V14.00,2013-08-03 03:41:00,
2013-08-02 22:47:00,77.5,66.6,29.76,SE,135,1.0,1.0,69,0.00,,---,0.00,VWS V14.00,2013-08-03 03:47:00,
2013-08-02 22:53:00,77.4,66.4,29.76,ESE,112,3.0,3.0,69,0.00,,---,0.00,VWS V14.00,2013-08-03 03:53:00,
2013-08-02 22:58:00,77.4,66.4,29.76,SE,135,2.4,2.5,69,0.00,,---,0.00,VWS V14.00,2013-08-03 03:58:00,
2013-08-02 23:02:00,77.4,66.8,29.76,SSE,158,4.1,4.1,70,0.00,,---,0.00,VWS V14.00,2013-08-03 04:02:00,
2013-08-02 23:04:00,77.2,66.7,29.76,ESE,112,4.6,4.6,70,0.00,,---,0.00,VWS V14.00,2013-08-03 04:04:00,
2013-08-02 23:06:00,77.2,67.1,29.76,SSE,158,3.0,3.0,71,0.00,,---,0.00,VWS V14.00,2013-08-03 04:06:00,
2013-08-02 23:11:00,77.0,67.3,29.76,SSE,158,1.0,0.0,72,0.00,,---,0.00,VWS V14.00,2013-08-03 04:11:00,
2013-08-02 23:14:00,77.0,66.9,29.76,SSE,158,2.7,2.7,71,0.00,,---,0.00,VWS V14.00,2013-08-03 04:14:00,
2013-08-02 23:19:00,76.8,67.1,29.76,SE,135,1.0,0.0,72,0.00,,---,0.00,VWS V14.00,2013-08-03 04:19:00,
2013-08-02 23:24:00,76.8,67.1,29.76,SE,135,1.0,0.0,72,0.00,,---,0.00,VWS V14.00,2013-08-03 04:24:00,
2013-08-02 23:30:00,76.6,67.3,29.76,South,180,3.0,3.0,73,0.00,,---,0.00,VWS V14.00,2013-08-03 04:30:00,
2013-08-02 23:35:00,76.5,67.6,29.74,South,180,4.4,4.4,74,0.00,,---,0.00,VWS V14.00,2013-08-03 04:35:00,
2013-08-02 23:40:00,76.5,67.6,29.74,South,180,3.0,3.0,74,0.00,,---,0.00,VWS V14.00,2013-08-03 04:40:00,
2013-08-02 23:46:00,76.5,67.6,29.74,SW,225,2.4,2.4,74,0.00,,---,0.00,VWS V14.00,2013-08-03 04:46:00,
2013-08-02 23:51:00,76.3,67.8,29.74,SSE,158,3.8,3.8,75,0.00,,---,0.00,VWS V14.00,2013-08-03 04:51:00,
2013-08-02 23:56:00,76.1,67.6,29.74,South,180,3.0,3.0,75,0.00,,---,0.00,VWS V14.00,2013-08-03 04:56:00,